createdAt,value
2017-03-20T00:00:06.626Z,50.54
2017-03-20T00:01:06.339Z,50.45
2017-03-20T00:02:06.674Z,50.26
2017-03-20T00:03:06.705Z,50.35
2017-03-20T00:04:06.734Z,50.45
2017-03-20T00:05:06.762Z,50.26
2017-03-20T00:06:06.475Z,50.16
2017-03-20T00:07:06.851Z,50.18
2017-03-20T00:08:06.852Z,50.26
2017-03-20T00:09:06.874Z,50.26
2017-03-20T00:10:06.894Z,50.26
2017-03-20T00:11:06.614Z,50.16
2017-03-20T00:12:06.958Z,50.35
2017-03-20T00:13:06.669Z,50.35
2017-03-20T00:14:07.004Z,50.35
2017-03-20T00:15:07.042Z,50.45
2017-03-20T00:16:07.058Z,50.35
2017-03-20T00:17:07.096Z,50.26
2017-03-20T00:18:07.120Z,50.45
2017-03-20T00:19:07.152Z,50.35
2017-03-20T00:20:07.174Z,50.26
2017-03-20T00:21:07.199Z,50.45
2017-03-20T00:22:07.230Z,50.06
2017-03-20T00:23:07.260Z,50.06
2017-03-20T00:24:07.293Z,50.54
2017-03-20T00:25:07.314Z,50.06
2017-03-20T00:26:07.338Z,50.06
2017-03-20T00:27:07.059Z,50.16
2017-03-20T00:28:07.395Z,49.96
2017-03-20T00:29:07.429Z,50.84
2017-03-20T00:30:07.454Z,50.06
2017-03-20T00:31:07.474Z,49.96
2017-03-20T00:32:07.194Z,50.06
2017-03-20T00:33:07.533Z,50.06
2017-03-20T00:34:07.567Z,50.35
2017-03-20T00:35:07.587Z,50.16
2017-03-20T00:36:07.618Z,50.16
2017-03-20T00:37:07.646Z,50.26
2017-03-20T00:38:07.354Z,49.87
2017-03-20T00:39:07.705Z,50.16
2017-03-20T00:40:07.728Z,50.06
2017-03-20T00:41:07.753Z,50.45
2017-03-20T00:42:07.465Z,50.26
2017-03-20T00:43:07.809Z,49.87
2017-03-20T00:44:07.837Z,49.58
2017-03-20T00:45:07.864Z,50.06
2017-03-20T00:46:07.575Z,49.77
2017-03-20T00:47:07.918Z,50.26
2017-03-20T00:48:07.993Z,49.87
2017-03-20T00:49:07.972Z,49.87
2017-03-20T00:50:07.999Z,49.96
2017-03-20T00:51:08.021Z,49.48
2017-03-20T00:52:08.058Z,49.77
2017-03-20T00:53:07.775Z,49.96
2017-03-20T00:54:08.112Z,49.39
2017-03-20T00:55:08.145Z,49.58
2017-03-20T00:56:08.165Z,49.68
2017-03-20T00:57:08.194Z,49.68
2017-03-20T00:58:08.231Z,49.58
2017-03-20T00:59:08.252Z,49.39
2017-03-20T01:00:08.279Z,49.29
2017-03-20T01:01:08.297Z,49.68
2017-03-20T01:02:08.334Z,49.87
2017-03-20T01:03:08.611Z,50.16
2017-03-20T01:04:08.384Z,50.06
2017-03-20T01:05:08.408Z,49.48
2017-03-20T01:06:08.441Z,50.06
2017-03-20T01:07:08.474Z,50.06
2017-03-20T01:08:08.744Z,49.48
2017-03-20T01:09:08.526Z,50.06
2017-03-20T01:10:08.553Z,49.48
2017-03-20T01:11:08.581Z,49.68
2017-03-20T01:12:08.293Z,49.1
2017-03-20T01:13:08.887Z,49.94
2017-03-20T01:14:08.664Z,49.68
2017-03-20T01:15:08.687Z,49.55
2017-03-20T01:16:08.719Z,49.46
2017-03-20T01:17:08.748Z,49.65
2017-03-20T01:18:09.030Z,49.37
2017-03-20T01:19:08.801Z,49.68
2017-03-20T01:20:08.833Z,49.55
2017-03-20T01:21:08.856Z,49.68
2017-03-20T01:22:08.570Z,49.68
2017-03-20T01:23:09.160Z,49.48
2017-03-20T01:24:08.937Z,49.68
2017-03-20T01:25:08.648Z,49.68
2017-03-20T01:26:08.992Z,49.55
2017-03-20T01:27:08.709Z,49.65
2017-03-20T01:28:09.298Z,49.37
2017-03-20T01:29:08.767Z,49.07
2017-03-20T01:30:08.788Z,49.65
2017-03-20T01:31:09.129Z,49.37
2017-03-20T01:32:09.153Z,49.27
2017-03-20T01:33:09.436Z,49.17
2017-03-20T01:34:08.903Z,48.9
2017-03-20T01:35:09.240Z,49.37
2017-03-20T01:36:09.268Z,48.88
2017-03-20T01:37:09.293Z,49.46
2017-03-20T01:38:09.578Z,49.27
2017-03-20T01:39:09.347Z,49.37
2017-03-20T01:40:09.375Z,49.29
2017-03-20T01:41:09.404Z,49.07
2017-03-20T01:42:09.426Z,49.19
2017-03-20T01:43:09.401Z,49.29
2017-03-20T01:44:09.174Z,49.17
2017-03-20T01:45:09.516Z,49.37
2017-03-20T01:46:09.539Z,49.46
2017-03-20T01:47:09.253Z,48.88
2017-03-20T01:48:09.529Z,49.07
2017-03-20T01:49:09.619Z,49.17
2017-03-20T01:50:09.665Z,49.17
2017-03-20T01:51:09.676Z,48.97
2017-03-20T01:52:09.704Z,49.07
2017-03-20T01:53:09.985Z,49.17
2017-03-20T01:54:09.758Z,48.88
2017-03-20T01:55:09.791Z,48.88
2017-03-20T01:56:09.814Z,48.88
2017-03-20T01:57:09.524Z,49.07
2017-03-20T01:58:10.119Z,48.97
2017-03-20T01:59:09.895Z,48.97
2017-03-20T02:00:09.607Z,49.07
2017-03-20T02:01:09.637Z,49.07
2017-03-20T02:02:09.978Z,49.07
2017-03-20T02:03:09.697Z,49.07
2017-03-20T02:04:10.031Z,49.46
2017-03-20T02:05:10.062Z,49.17
2017-03-20T02:06:10.081Z,49.37
2017-03-20T02:07:09.804Z,49.07
2017-03-20T02:08:10.140Z,49.37
2017-03-20T02:09:10.210Z,49.27
2017-03-20T02:10:10.190Z,49.17
2017-03-20T02:11:10.223Z,48.88
2017-03-20T02:12:10.254Z,49.55
2017-03-20T02:13:10.281Z,48.97
2017-03-20T02:14:10.002Z,49.07
2017-03-20T02:15:10.022Z,49.17
2017-03-20T02:16:10.363Z,49
2017-03-20T02:17:10.072Z,49.27
2017-03-20T02:18:10.107Z,49.07
2017-03-20T02:19:10.132Z,49.27
2017-03-20T02:20:10.157Z,48.97
2017-03-20T02:21:10.499Z,48.79
2017-03-20T02:22:10.524Z,49.17
2017-03-20T02:23:10.553Z,49.17
2017-03-20T02:24:10.312Z,49.17
2017-03-20T02:25:10.605Z,48.79
2017-03-20T02:26:10.323Z,48.79
2017-03-20T02:27:10.347Z,48.97
2017-03-20T02:28:10.696Z,48.69
2017-03-20T02:29:10.721Z,48.97
2017-03-20T02:30:10.745Z,48.97
2017-03-20T02:31:10.453Z,48.79
2017-03-20T02:32:10.491Z,48.69
2017-03-20T02:33:10.840Z,48.69
2017-03-20T02:34:10.548Z,49.17
2017-03-20T02:35:10.574Z,48.69
2017-03-20T02:36:10.907Z,48.97
2017-03-20T02:37:10.931Z,49.07
2017-03-20T02:38:10.652Z,48.88
2017-03-20T02:39:11.253Z,49.07
2017-03-20T02:40:11.018Z,48.59
2017-03-20T02:41:11.047Z,48.69
2017-03-20T02:42:11.063Z,48.59
2017-03-20T02:43:11.099Z,48.88
2017-03-20T02:44:11.389Z,48.69
2017-03-20T02:45:11.153Z,48.88
2017-03-20T02:46:10.871Z,48.79
2017-03-20T02:47:11.211Z,48.69
2017-03-20T02:48:11.232Z,48.59
2017-03-20T02:49:11.520Z,48.79
2017-03-20T02:50:11.293Z,48.69
2017-03-20T02:51:11.318Z,48.59
2017-03-20T02:52:11.036Z,48.69
2017-03-20T02:53:11.380Z,48.69
2017-03-20T02:54:11.344Z,48.69
2017-03-20T02:55:11.425Z,48.59
2017-03-20T02:56:11.145Z,48.69
2017-03-20T02:57:11.482Z,48.88
2017-03-20T02:58:11.503Z,48.88
2017-03-20T02:59:11.787Z,48.97
2017-03-20T03:00:11.569Z,48.88
2017-03-20T03:01:11.593Z,49.07
2017-03-20T03:02:11.619Z,48.49
2017-03-20T03:03:11.651Z,48.59
2017-03-20T03:04:11.931Z,48.79
2017-03-20T03:05:11.700Z,48.88
2017-03-20T03:06:11.417Z,48.88
2017-03-20T03:07:11.758Z,48.88
2017-03-20T03:08:11.777Z,48.97
2017-03-20T03:09:11.523Z,48.79
2017-03-20T03:10:11.529Z,48.59
2017-03-20T03:11:11.865Z,48.4
2017-03-20T03:12:11.585Z,48.59
2017-03-20T03:13:11.604Z,48.59
2017-03-20T03:14:11.953Z,48.59
2017-03-20T03:15:11.976Z,48.59
2017-03-20T03:16:12.001Z,48.59
2017-03-20T03:17:12.029Z,48.59
2017-03-20T03:18:12.065Z,48.59
2017-03-20T03:19:12.083Z,48.59
2017-03-20T03:20:12.115Z,48.3
2017-03-20T03:21:12.137Z,48.3
2017-03-20T03:22:11.853Z,48.49
2017-03-20T03:23:11.879Z,48.69
2017-03-20T03:24:12.220Z,48.69
2017-03-20T03:25:12.248Z,48.49
2017-03-20T03:26:12.277Z,48.59
2017-03-20T03:27:12.297Z,48.69
2017-03-20T03:28:12.326Z,48.49
2017-03-20T03:29:12.360Z,48.59
2017-03-20T03:30:12.384Z,48.49
2017-03-20T03:31:12.412Z,48.49
2017-03-20T03:32:12.122Z,48.59
2017-03-20T03:33:12.463Z,48.59
2017-03-20T03:34:12.499Z,48.59
2017-03-20T03:35:12.527Z,48.49
2017-03-20T03:36:12.564Z,48.3
2017-03-20T03:37:12.582Z,48.3
2017-03-20T03:38:12.605Z,48.49
2017-03-20T03:39:12.627Z,48.49
2017-03-20T03:40:12.340Z,48.49
2017-03-20T03:41:12.377Z,48.59
2017-03-20T03:42:12.703Z,48.49
2017-03-20T03:43:12.738Z,48.69
2017-03-20T03:44:12.771Z,48.3
2017-03-20T03:45:12.484Z,48.69
2017-03-20T03:46:12.534Z,48.11
2017-03-20T03:47:12.845Z,48.11
2017-03-20T03:48:12.879Z,48.11
2017-03-20T03:49:12.907Z,48.49
2017-03-20T03:50:12.927Z,48.49
2017-03-20T03:51:12.956Z,48.4
2017-03-20T03:52:12.985Z,48.59
2017-03-20T03:53:12.693Z,48.4
2017-03-20T03:54:13.038Z,48.21
2017-03-20T03:55:13.070Z,48.3
2017-03-20T03:56:13.095Z,48.11
2017-03-20T03:57:13.116Z,48.4
2017-03-20T03:58:12.831Z,48.21
2017-03-20T03:59:12.862Z,47.72
2017-03-20T04:00:13.198Z,47.63
2017-03-20T04:01:13.235Z,47.72
2017-03-20T04:02:12.945Z,48.11
2017-03-20T04:03:12.974Z,48.01
2017-03-20T04:04:13.306Z,48.01
2017-03-20T04:05:13.339Z,47.72
2017-03-20T04:06:13.364Z,47.82
2017-03-20T04:07:13.393Z,47.72
2017-03-20T04:08:13.417Z,47.53
2017-03-20T04:09:13.446Z,48.01
2017-03-20T04:10:13.166Z,47.82
2017-03-20T04:11:13.499Z,47.82
2017-03-20T04:12:13.530Z,47.53
2017-03-20T04:13:13.557Z,48.01
2017-03-20T04:14:13.577Z,47.72
2017-03-20T04:15:13.298Z,48.01
2017-03-20T04:16:13.631Z,48.01
2017-03-20T04:17:13.351Z,48.01
2017-03-20T04:18:13.377Z,47.63
2017-03-20T04:19:13.726Z,47.89
2017-03-20T04:20:13.742Z,48.11
2017-03-20T04:21:13.492Z,48.01
2017-03-20T04:22:13.803Z,48.01
2017-03-20T04:23:13.829Z,47.92
2017-03-20T04:24:13.853Z,47.92
2017-03-20T04:25:13.570Z,48.01
2017-03-20T04:26:13.911Z,48.21
2017-03-20T04:27:13.936Z,48.21
2017-03-20T04:28:13.653Z,48.01
2017-03-20T04:29:13.993Z,48.11
2017-03-20T04:30:14.018Z,48.11
2017-03-20T04:31:14.046Z,48.11
2017-03-20T04:32:14.071Z,48.3
2017-03-20T04:33:14.100Z,48.01
2017-03-20T04:34:13.813Z,48.3
2017-03-20T04:35:14.158Z,48.01
2017-03-20T04:36:13.870Z,48.01
2017-03-20T04:37:14.212Z,48.11
2017-03-20T04:38:13.924Z,47.6
2017-03-20T04:39:14.266Z,47.72
2017-03-20T04:40:13.982Z,48.3
2017-03-20T04:41:14.320Z,47.92
2017-03-20T04:42:14.343Z,47.82
2017-03-20T04:43:14.368Z,48.3
2017-03-20T04:44:14.405Z,47.89
2017-03-20T04:45:14.112Z,47.89
2017-03-20T04:46:14.455Z,48.01
2017-03-20T04:47:14.478Z,48.01
2017-03-20T04:48:14.507Z,47.99
2017-03-20T04:49:14.229Z,47.82
2017-03-20T04:50:14.558Z,47.51
2017-03-20T04:51:14.590Z,47.72
2017-03-20T04:52:14.614Z,47.51
2017-03-20T04:53:14.648Z,47.89
2017-03-20T04:54:14.360Z,47.82
2017-03-20T04:55:14.384Z,47.6
2017-03-20T04:56:14.411Z,47.53
2017-03-20T04:57:14.754Z,47.41
2017-03-20T04:58:14.780Z,47.31
2017-03-20T04:59:14.813Z,47.63
2017-03-20T05:00:14.837Z,47.31
2017-03-20T05:01:14.862Z,47.63
2017-03-20T05:02:14.887Z,47.6
2017-03-20T05:03:14.607Z,47.6
2017-03-20T05:04:14.940Z,47.6
2017-03-20T05:05:14.653Z,47.6
2017-03-20T05:06:14.995Z,47.41
2017-03-20T05:07:15.021Z,47.6
2017-03-20T05:08:14.739Z,47.31
2017-03-20T05:09:15.079Z,47.51
2017-03-20T05:10:14.799Z,47.31
2017-03-20T05:11:14.841Z,47.6
2017-03-20T05:12:14.847Z,47.51
2017-03-20T05:13:14.880Z,47.22
2017-03-20T05:14:15.215Z,47.22
2017-03-20T05:15:15.241Z,47.6
2017-03-20T05:16:14.949Z,47.7
2017-03-20T05:17:15.293Z,47.6
2017-03-20T05:18:15.011Z,47.51
2017-03-20T05:19:15.044Z,47.31
2017-03-20T05:20:15.373Z,47.31
2017-03-20T05:21:15.401Z,47.41
2017-03-20T05:22:15.432Z,47.12
2017-03-20T05:23:15.467Z,47.41
2017-03-20T05:24:15.176Z,47.6
2017-03-20T05:25:15.512Z,47.22
2017-03-20T05:26:15.229Z,47.53
2017-03-20T05:27:15.255Z,47.31
2017-03-20T05:28:15.283Z,47.51
2017-03-20T05:29:15.624Z,47.22
2017-03-20T05:30:15.653Z,47.7
2017-03-20T05:31:15.672Z,46.93
2017-03-20T05:32:15.697Z,47.6
2017-03-20T05:33:15.734Z,47.44
2017-03-20T05:34:15.755Z,47.63
2017-03-20T05:35:15.467Z,47.44
2017-03-20T05:36:15.496Z,47.44
2017-03-20T05:37:15.837Z,47.31
2017-03-20T05:38:15.870Z,47.22
2017-03-20T05:39:15.579Z,47.24
2017-03-20T05:40:16.176Z,47.72
2017-03-20T05:41:15.945Z,47.63
2017-03-20T05:42:15.660Z,47.44
2017-03-20T05:43:15.695Z,47.53
2017-03-20T05:44:15.715Z,47.24
2017-03-20T05:45:16.308Z,47.24
2017-03-20T05:46:16.077Z,47.53
2017-03-20T05:47:16.113Z,47.53
2017-03-20T05:48:15.827Z,47.53
2017-03-20T05:49:16.166Z,47.44
2017-03-20T05:50:16.443Z,47.53
2017-03-20T05:51:16.215Z,47.24
2017-03-20T05:52:16.245Z,47.53
2017-03-20T05:53:16.274Z,47.72
2017-03-20T05:54:16.311Z,47.53
2017-03-20T05:55:16.579Z,47.63
2017-03-20T05:56:16.356Z,47.34
2017-03-20T05:57:16.068Z,47.14
2017-03-20T05:58:16.106Z,47.24
2017-03-20T05:59:16.125Z,47.24
2017-03-20T06:00:16.714Z,47.24
2017-03-20T06:01:16.180Z,47.24
2017-03-20T06:02:16.200Z,47.44
2017-03-20T06:03:16.545Z,47.34
2017-03-20T06:04:16.266Z,47.05
2017-03-20T06:05:16.539Z,47.24
2017-03-20T06:06:16.316Z,47.44
2017-03-20T06:07:16.348Z,47.53
2017-03-20T06:08:16.682Z,47.44
2017-03-20T06:09:16.710Z,47.14
2017-03-20T06:10:16.986Z,47.14
2017-03-20T06:11:16.771Z,47.17
2017-03-20T06:12:16.781Z,46.97
2017-03-20T06:13:16.816Z,46.88
2017-03-20T06:14:16.845Z,47.24
2017-03-20T06:15:16.866Z,47.17
2017-03-20T06:16:16.899Z,47.27
2017-03-20T06:17:16.923Z,47.05
2017-03-20T06:18:16.953Z,46.97
2017-03-20T06:19:16.670Z,47.36
2017-03-20T06:20:17.007Z,47.36
2017-03-20T06:21:16.722Z,47.17
2017-03-20T06:22:17.056Z,47.27
2017-03-20T06:23:17.090Z,46.97
2017-03-20T06:24:16.813Z,46.69
2017-03-20T06:25:16.830Z,46.59
2017-03-20T06:26:17.163Z,46.59
2017-03-20T06:27:17.196Z,46.4
2017-03-20T06:28:17.229Z,46.4
2017-03-20T06:29:17.255Z,46.69
2017-03-20T06:30:16.969Z,46.49
2017-03-20T06:31:16.995Z,46.4
2017-03-20T06:32:17.019Z,46.69
2017-03-20T06:33:17.359Z,46.3
2017-03-20T06:34:17.398Z,46.59
2017-03-20T06:35:17.426Z,46.4
2017-03-20T06:36:17.443Z,46.2
2017-03-20T06:37:17.472Z,46.69
2017-03-20T06:38:17.505Z,46.49
2017-03-20T06:39:17.218Z,46.59
2017-03-20T06:40:17.246Z,46.4
2017-03-20T06:41:17.582Z,46.4
2017-03-20T06:42:17.624Z,46.69
2017-03-20T06:43:17.641Z,46.71
2017-03-20T06:44:17.666Z,46.71
2017-03-20T06:45:17.690Z,46.42
2017-03-20T06:46:17.718Z,46.4
2017-03-20T06:47:17.440Z,46.61
2017-03-20T06:48:17.772Z,46.42
2017-03-20T06:49:17.813Z,46.3
2017-03-20T06:50:17.826Z,46.11
2017-03-20T06:51:17.854Z,46.33
2017-03-20T06:52:17.880Z,46.33
2017-03-20T06:53:17.909Z,46.33
2017-03-20T06:54:17.941Z,46.42
2017-03-20T06:55:17.965Z,46.03
2017-03-20T06:56:17.688Z,46.03
2017-03-20T06:57:17.711Z,46.03
2017-03-20T06:58:18.059Z,45.84
2017-03-20T06:59:18.077Z,46.03
2017-03-20T07:00:18.096Z,46.51
2017-03-20T07:01:18.130Z,46.51
2017-03-20T07:02:18.164Z,46.03
2017-03-20T07:03:18.185Z,46.33
2017-03-20T07:04:18.218Z,45.94
2017-03-20T07:05:18.241Z,45.94
2017-03-20T07:06:18.267Z,45.84
2017-03-20T07:07:18.295Z,45.94
2017-03-20T07:08:18.325Z,46.23
2017-03-20T07:09:18.347Z,46.13
2017-03-20T07:10:18.377Z,46.33
2017-03-20T07:11:18.406Z,46.03
2017-03-20T07:12:18.429Z,46.03
2017-03-20T07:13:18.152Z,45.84
2017-03-20T07:14:18.488Z,45.94
2017-03-20T07:15:18.509Z,45.75
2017-03-20T07:16:18.546Z,46.03
2017-03-20T07:17:18.570Z,45.84
2017-03-20T07:18:18.596Z,46.03
2017-03-20T07:19:18.321Z,45.94
2017-03-20T07:20:18.340Z,46.13
2017-03-20T07:21:18.362Z,46.23
2017-03-20T07:22:18.390Z,46.03
2017-03-20T07:23:18.428Z,46.23
2017-03-20T07:24:18.765Z,45.94
2017-03-20T07:25:18.785Z,46.13
2017-03-20T07:26:18.510Z,45.75
2017-03-20T07:27:18.535Z,45.75
2017-03-20T07:28:18.870Z,45.84
2017-03-20T07:29:18.908Z,45.65
2017-03-20T07:30:18.929Z,45.84
2017-03-20T07:31:18.646Z,45.55
2017-03-20T07:32:18.982Z,45.84
2017-03-20T07:33:19.014Z,45.65
2017-03-20T07:34:19.039Z,45.94
2017-03-20T07:35:19.061Z,45.65
2017-03-20T07:36:19.098Z,45.84
2017-03-20T07:37:19.122Z,45.75
2017-03-20T07:38:18.837Z,45.84
2017-03-20T07:39:19.185Z,46.03
2017-03-20T07:40:19.206Z,45.84
2017-03-20T07:41:18.925Z,45.75
2017-03-20T07:42:18.947Z,45.65
2017-03-20T07:43:19.292Z,45.94
2017-03-20T07:44:19.003Z,45.75
2017-03-20T07:45:19.032Z,45.84
2017-03-20T07:46:19.369Z,45.75
2017-03-20T07:47:19.402Z,45.94
2017-03-20T07:48:19.111Z,45.65
2017-03-20T07:49:19.139Z,46.03
2017-03-20T07:50:19.480Z,45.45
2017-03-20T07:51:19.508Z,46.03
2017-03-20T07:52:19.546Z,45.55
2017-03-20T07:53:19.558Z,45.75
2017-03-20T07:54:19.587Z,45.36
2017-03-20T07:55:19.624Z,45.17
2017-03-20T07:56:19.644Z,45.17
2017-03-20T07:57:19.361Z,45.17
2017-03-20T07:58:19.707Z,45.26
2017-03-20T07:59:19.732Z,45.17
2017-03-20T08:00:19.444Z,45.17
2017-03-20T08:01:19.721Z,45.26
2017-03-20T08:02:19.804Z,45.17
2017-03-20T08:03:19.523Z,45.26
2017-03-20T08:04:19.556Z,45.07
2017-03-20T08:05:19.585Z,45.55
2017-03-20T08:06:19.855Z,45.55
2017-03-20T08:07:19.948Z,45.45
2017-03-20T08:08:19.974Z,45.55
2017-03-20T08:09:19.691Z,45.65
2017-03-20T08:10:20.031Z,45.45
2017-03-20T08:11:20.308Z,45.45
2017-03-20T08:12:20.087Z,45.36
2017-03-20T08:13:20.106Z,45.36
2017-03-20T08:14:20.143Z,45.36
2017-03-20T08:15:20.176Z,45.26
2017-03-20T08:16:20.448Z,45.26
2017-03-20T08:17:20.228Z,45.26
2017-03-20T08:18:20.250Z,45.17
2017-03-20T08:19:20.283Z,45.36
2017-03-20T08:20:20.308Z,44.97
2017-03-20T08:21:20.591Z,45.55
2017-03-20T08:22:20.365Z,45.36
2017-03-20T08:23:20.087Z,45.45
2017-03-20T08:24:20.423Z,44.97
2017-03-20T08:25:20.135Z,45.07
2017-03-20T08:26:20.739Z,45.26
2017-03-20T08:27:20.502Z,45.65
2017-03-20T08:28:20.526Z,45.55
2017-03-20T08:29:20.558Z,45.36
2017-03-20T08:30:20.591Z,45.55
2017-03-20T08:31:20.547Z,45.55
2017-03-20T08:32:20.641Z,45.45
2017-03-20T08:33:20.670Z,45.55
2017-03-20T08:34:20.693Z,45.55
2017-03-20T08:35:20.723Z,45.55
2017-03-20T08:36:21.002Z,45.45
2017-03-20T08:37:20.781Z,45.36
2017-03-20T08:38:20.494Z,45.45
2017-03-20T08:39:20.838Z,45.36
2017-03-20T08:40:20.862Z,45.45
2017-03-20T08:41:20.580Z,45.55
2017-03-20T08:42:20.600Z,45.36
2017-03-20T08:43:20.638Z,45.36
2017-03-20T08:44:20.975Z,45.36
2017-03-20T08:45:20.998Z,45.65
2017-03-20T08:46:21.059Z,45.55
2017-03-20T08:47:21.060Z,45.65
2017-03-20T08:48:21.090Z,45.36
2017-03-20T08:49:21.113Z,45.17
2017-03-20T08:50:21.139Z,45.26
2017-03-20T08:51:21.167Z,45.17
2017-03-20T08:52:21.197Z,45.26
2017-03-20T08:53:21.218Z,45.45
2017-03-20T08:54:21.250Z,45.65
2017-03-20T08:55:20.962Z,45.26
2017-03-20T08:56:21.303Z,45.17
2017-03-20T08:57:21.332Z,45.26
2017-03-20T08:58:21.365Z,45.26
2017-03-20T08:59:21.390Z,45.17
2017-03-20T09:00:21.414Z,45.65
2017-03-20T09:01:21.444Z,45.55
2017-03-20T09:02:21.476Z,45.45
2017-03-20T09:03:21.490Z,45.26
2017-03-20T09:04:21.211Z,45.65
2017-03-20T09:05:21.242Z,45.65
2017-03-20T09:06:21.583Z,45.07
2017-03-20T09:07:21.292Z,45.17
2017-03-20T09:08:21.641Z,44.97
2017-03-20T09:09:21.657Z,45.17
2017-03-20T09:10:21.694Z,45.07
2017-03-20T09:11:21.724Z,45.17
2017-03-20T09:12:21.752Z,45.17
2017-03-20T09:13:21.776Z,45.17
2017-03-20T09:14:21.807Z,45.17
2017-03-20T09:15:21.829Z,45.07
2017-03-20T09:16:21.546Z,45.26
2017-03-20T09:17:22.135Z,44.87
2017-03-20T09:18:21.916Z,44.78
2017-03-20T09:19:21.637Z,45.17
2017-03-20T09:20:21.657Z,45.17
2017-03-20T09:21:22.006Z,44.97
2017-03-20T09:22:22.281Z,45.07
2017-03-20T09:23:22.061Z,45.07
2017-03-20T09:24:22.078Z,44.97
2017-03-20T09:25:22.106Z,45.07
2017-03-20T09:26:21.827Z,44.87
2017-03-20T09:27:22.419Z,45.07
2017-03-20T09:28:22.193Z,44.97
2017-03-20T09:29:21.933Z,44.49
2017-03-20T09:30:22.251Z,44.78
2017-03-20T09:31:22.279Z,44.78
2017-03-20T09:32:22.239Z,44.78
2017-03-20T09:33:22.325Z,44.78
2017-03-20T09:34:22.356Z,44.78
2017-03-20T09:35:22.386Z,44.59
2017-03-20T09:36:22.102Z,44.68
2017-03-20T09:37:22.383Z,44.97
2017-03-20T09:38:22.160Z,44.87
2017-03-20T09:39:22.496Z,44.78
2017-03-20T09:40:22.210Z,44.78
2017-03-20T09:41:22.242Z,44.97
2017-03-20T09:42:22.519Z,44.97
2017-03-20T09:43:22.613Z,44.97
2017-03-20T09:44:22.639Z,44.87
2017-03-20T09:45:22.665Z,44.87
2017-03-20T09:46:22.690Z,44.87
2017-03-20T09:47:22.970Z,44.68
2017-03-20T09:48:22.751Z,44.59
2017-03-20T09:49:22.464Z,44.29
2017-03-20T09:50:22.807Z,44.2
2017-03-20T09:51:22.830Z,44.59
2017-03-20T09:52:22.546Z,44.59
2017-03-20T09:53:22.888Z,44.29
2017-03-20T09:54:22.603Z,44.2
2017-03-20T09:55:22.629Z,44.39
2017-03-20T09:56:22.977Z,44.2
2017-03-20T09:57:23.001Z,44.1
2017-03-20T09:58:23.026Z,44.49
2017-03-20T09:59:23.053Z,44.2
2017-03-20T10:00:23.110Z,44.1
2017-03-20T10:01:22.794Z,44.2
2017-03-20T10:02:23.140Z,44.29
2017-03-20T10:03:23.164Z,44.2
2017-03-20T10:04:23.193Z,44.49
2017-03-20T10:05:23.220Z,44.2
2017-03-20T10:06:23.248Z,44.2
2017-03-20T10:07:22.965Z,44.2
2017-03-20T10:08:23.311Z,44.2
2017-03-20T10:09:23.331Z,44.2
2017-03-20T10:10:23.360Z,44.29
2017-03-20T10:11:23.390Z,44.2
2017-03-20T10:12:23.102Z,44.29
2017-03-20T10:13:23.444Z,44.39
2017-03-20T10:14:23.164Z,44.49
2017-03-20T10:15:23.500Z,44.49
2017-03-20T10:16:23.214Z,44.39
2017-03-20T10:17:23.237Z,44.2
2017-03-20T10:18:23.271Z,44.59
2017-03-20T10:19:23.612Z,44.59
2017-03-20T10:20:23.325Z,44.29
2017-03-20T10:21:23.665Z,44.59
2017-03-20T10:22:23.693Z,44.2
2017-03-20T10:23:23.719Z,44.29
2017-03-20T10:24:23.756Z,44.1
2017-03-20T10:25:23.776Z,44.2
2017-03-20T10:26:23.489Z,44.59
2017-03-20T10:27:23.830Z,44.29
2017-03-20T10:28:23.863Z,44.29
2017-03-20T10:29:23.896Z,44.1
2017-03-20T10:30:23.924Z,44.2
2017-03-20T10:31:23.940Z,44.2
2017-03-20T10:32:23.967Z,44.01
2017-03-20T10:33:24.004Z,44.39
2017-03-20T10:34:23.718Z,44.39
2017-03-20T10:35:23.743Z,44.1
2017-03-20T10:36:24.085Z,44.39
2017-03-20T10:37:24.112Z,44.29
2017-03-20T10:38:23.834Z,44.59
2017-03-20T10:39:24.167Z,44.59
2017-03-20T10:40:24.196Z,44.49
2017-03-20T10:41:24.224Z,44.29
2017-03-20T10:42:24.243Z,44.68
2017-03-20T10:43:24.278Z,44.68
2017-03-20T10:44:24.306Z,44.85
2017-03-20T10:45:24.332Z,44.76
2017-03-20T10:46:24.364Z,44.78
2017-03-20T10:47:24.385Z,44.78
2017-03-20T10:48:24.417Z,44.87
2017-03-20T10:49:24.498Z,44.78
2017-03-20T10:50:24.475Z,44.68
2017-03-20T10:51:24.184Z,44.78
2017-03-20T10:52:24.217Z,44.85
2017-03-20T10:53:24.811Z,44.87
2017-03-20T10:54:24.586Z,44.49
2017-03-20T10:55:24.295Z,44.68
2017-03-20T10:56:24.640Z,44.85
2017-03-20T10:57:24.663Z,44.78
2017-03-20T10:58:24.946Z,44.87
2017-03-20T10:59:24.731Z,44.97
2017-03-20T11:00:24.751Z,44.87
2017-03-20T11:01:24.780Z,44.78
2017-03-20T11:02:24.804Z,44.85
2017-03-20T11:03:24.773Z,44.27
2017-03-20T11:04:24.867Z,44.59
2017-03-20T11:05:24.575Z,44.87
2017-03-20T11:06:24.607Z,44.08
2017-03-20T11:07:24.944Z,44.87
2017-03-20T11:08:25.229Z,44.85
2017-03-20T11:09:25.002Z,44.66
2017-03-20T11:10:24.714Z,44.95
2017-03-20T11:11:25.056Z,44.27
2017-03-20T11:12:25.076Z,44.56
2017-03-20T11:13:25.373Z,44.66
2017-03-20T11:14:25.138Z,44.56
2017-03-20T11:15:25.205Z,44.18
2017-03-20T11:16:24.882Z,44.37
2017-03-20T11:17:25.228Z,44.27
2017-03-20T11:18:25.501Z,44.18
2017-03-20T11:19:25.278Z,44.18
2017-03-20T11:20:25.301Z,44.66
2017-03-20T11:21:25.342Z,44.85
2017-03-20T11:22:25.044Z,44.85
2017-03-20T11:23:25.640Z,44.66
2017-03-20T11:24:25.417Z,44.37
2017-03-20T11:25:25.447Z,44.08
2017-03-20T11:26:25.156Z,44.76
2017-03-20T11:27:25.496Z,44.85
2017-03-20T11:28:25.782Z,44.66
2017-03-20T11:29:25.554Z,44.37
2017-03-20T11:30:25.582Z,44.46
2017-03-20T11:31:25.611Z,44.27
2017-03-20T11:32:25.355Z,44.37
2017-03-20T11:33:25.916Z,44.27
2017-03-20T11:34:25.702Z,44.37
2017-03-20T11:35:25.722Z,44.37
2017-03-20T11:36:25.749Z,44.46
2017-03-20T11:37:25.459Z,44.18
2017-03-20T11:38:25.739Z,44.37
2017-03-20T11:39:25.829Z,44.37
2017-03-20T11:40:25.857Z,44.18
2017-03-20T11:41:25.890Z,44.18
2017-03-20T11:42:25.604Z,44.2
2017-03-20T11:43:26.192Z,44.2
2017-03-20T11:44:25.658Z,44.39
2017-03-20T11:45:26.044Z,44.29
2017-03-20T11:46:25.714Z,44.39
2017-03-20T11:47:26.048Z,44.39
2017-03-20T11:48:26.332Z,44.49
2017-03-20T11:49:26.113Z,44.2
2017-03-20T11:50:26.133Z,44.39
2017-03-20T11:51:26.163Z,43.91
2017-03-20T11:52:26.186Z,43.81
2017-03-20T11:53:26.471Z,44.2
2017-03-20T11:54:26.260Z,43.81
2017-03-20T11:55:26.276Z,43.91
2017-03-20T11:56:26.306Z,43.81
2017-03-20T11:57:26.018Z,43.81
2017-03-20T11:58:26.607Z,43.81
2017-03-20T11:59:26.076Z,44.1
2017-03-20T12:00:26.417Z,44.01
2017-03-20T12:01:26.450Z,43.72
2017-03-20T12:02:26.159Z,43.91
2017-03-20T12:03:26.754Z,44.1
2017-03-20T12:04:26.529Z,43.91
2017-03-20T12:05:26.557Z,43.81
2017-03-20T12:06:26.269Z,43.91
2017-03-20T12:07:26.610Z,44.01
2017-03-20T12:08:26.891Z,44.1
2017-03-20T12:09:26.668Z,44.01
2017-03-20T12:10:26.693Z,44.1
2017-03-20T12:11:26.721Z,43.81
2017-03-20T12:12:26.759Z,43.72
2017-03-20T12:13:27.031Z,43.81
2017-03-20T12:14:26.813Z,43.62
2017-03-20T12:15:26.517Z,44.01
2017-03-20T12:16:26.866Z,43.72
2017-03-20T12:17:26.891Z,44.1
2017-03-20T12:18:26.919Z,44.2
2017-03-20T12:19:26.952Z,43.72
2017-03-20T12:20:26.969Z,43.81
2017-03-20T12:21:26.998Z,43.81
2017-03-20T12:22:27.028Z,43.91
2017-03-20T12:23:27.062Z,43.91
2017-03-20T12:24:27.091Z,43.81
2017-03-20T12:25:27.116Z,44.1
2017-03-20T12:26:27.154Z,43.72
2017-03-20T12:27:26.862Z,43.81
2017-03-20T12:28:26.888Z,43.91
2017-03-20T12:29:27.235Z,44.2
2017-03-20T12:30:26.941Z,43.81
2017-03-20T12:31:26.964Z,43.81
2017-03-20T12:32:27.319Z,43.81
2017-03-20T12:33:27.026Z,44.01
2017-03-20T12:34:27.363Z,43.79
2017-03-20T12:35:27.076Z,43.91
2017-03-20T12:36:27.417Z,43.91
2017-03-20T12:37:27.137Z,43.81
2017-03-20T12:38:27.163Z,43.89
2017-03-20T12:39:27.505Z,44.01
2017-03-20T12:40:27.528Z,43.89
2017-03-20T12:41:27.557Z,43.98
2017-03-20T12:42:27.587Z,44.01
2017-03-20T12:43:27.615Z,44.2
2017-03-20T12:44:27.643Z,44.2
2017-03-20T12:45:27.359Z,43.81
2017-03-20T12:46:27.705Z,44.08
2017-03-20T12:47:27.725Z,43.81
2017-03-20T12:48:27.755Z,43.91
2017-03-20T12:49:27.783Z,43.79
2017-03-20T12:50:27.807Z,43.89
2017-03-20T12:51:27.833Z,43.91
2017-03-20T12:52:27.865Z,43.91
2017-03-20T12:53:27.895Z,43.91
2017-03-20T12:54:27.924Z,43.81
2017-03-20T12:55:27.636Z,43.91